Time;durP1;ratioP1;P1;durP2;ratioP2;P2;SDS_P1;SDS_P2;PMS_P1;PMS_P2;Temp;Humidity;BMP_temperature;BMP_pressure;BME280_temperature;BME280_humidity;BME280_pressure;Samples;Min_cycle;Max_cycle;Signal;HPM_P1;HPM_P2
2022/04/02 00:00:07;;;;;;;4.70;3.20;;;1.50;99.90;;;2.17;100.00;97266.63;4986176;28;20455;-75
2022/04/02 00:02:38;;;;;;;4.00;3.00;;;1.50;99.90;;;2.14;100.00;97257.44;4984367;28;20865;-74
2022/04/02 00:05:10;;;;;;;5.73;3.00;;;1.50;99.90;;;2.15;100.00;97271.97;4981373;28;20879;-74
2022/04/02 00:07:41;;;;;;;3.20;2.90;;;1.50;99.90;;;2.16;100.00;97259.84;4984164;28;20898;-75
2022/04/02 00:10:11;;;;;;;3.77;2.50;;;1.50;99.90;;;2.09;100.00;97258.84;4983747;28;20978;-75
2022/04/02 00:12:40;;;;;;;4.23;3.73;;;1.40;99.90;;;2.11;100.00;97251.78;4984590;28;20459;-74
2022/04/02 00:15:10;;;;;;;3.50;3.20;;;1.40;99.90;;;2.12;100.00;97253.41;4984109;28;20504;-74
2022/04/02 00:17:40;;;;;;;4.00;3.60;;;1.40;99.90;;;2.15;100.00;97253.09;4984586;28;20457;-74
2022/04/02 00:20:11;;;;;;;7.97;5.97;;;1.50;99.90;;;2.17;100.00;97258.91;4982997;28;20903;-74
2022/04/02 00:23:35;;;;;;;4.00;3.60;;;1.50;99.90;;;2.10;100.00;97257.91;4984025;28;20886;-75
2022/04/02 00:25:31;;;;;;;5.73;4.03;;;1.40;99.90;;;2.06;100.00;97259.16;4984096;28;20460;-75
2022/04/02 00:28:01;;;;;;;4.37;3.97;;;1.40;99.90;;;2.07;100.00;97261.59;4984888;28;20452;-74
2022/04/02 00:30:30;;;;;;;3.50;3.20;;;1.40;99.90;;;2.07;100.00;97263.38;4982193;28;20736;-75
2022/04/02 00:33:01;;;;;;;5.13;3.23;;;1.50;99.90;;;2.01;100.00;97257.84;4979679;28;20955;-75
2022/04/02 00:35:30;;;;;;;3.33;3.03;;;1.50;99.90;;;2.01;100.00;97257.06;4980729;28;21040;-75
2022/04/02 00:38:01;;;;;;;3.47;3.17;;;1.40;99.90;;;1.96;100.00;97261.84;4980063;28;20479;-74
2022/04/02 00:40:31;;;;;;;3.47;2.93;;;1.30;99.90;;;1.93;100.00;97255.25;4983037;28;21004;-74
2022/04/02 00:43:02;;;;;;;3.83;3.33;;;1.30;99.90;;;1.95;100.00;97260.22;4979838;28;20464;-75
2022/04/02 00:45:32;;;;;;;3.90;2.97;;;1.30;99.90;;;1.94;100.00;97266.38;4982728;28;20452;-75
2022/04/02 00:48:01;;;;;;;3.67;3.27;;;1.30;99.90;;;1.93;100.00;97259.59;4982438;28;20456;-75
2022/04/02 00:50:31;;;;;;;3.90;3.10;;;1.30;99.90;;;1.91;100.00;97261.50;4979812;28;20870;-74
2022/04/02 00:53:02;;;;;;;4.23;2.57;;;1.30;99.90;;;1.86;100.00;97261.97;4981473;28;20467;-75
2022/04/02 00:55:33;;;;;;;2.60;2.40;;;1.20;99.90;;;1.87;100.00;97265.34;4980477;28;20491;-75
2022/04/02 00:58:07;;;;;;;3.03;2.73;;;1.10;99.90;;;1.88;100.00;97260.03;4983813;28;20456;-75
2022/04/02 01:00:37;;;;;;;3.80;3.00;;;1.20;99.90;;;1.90;100.00;97259.91;4984200;28;20508;-75
2022/04/02 01:03:07;;;;;;;3.50;2.73;;;1.30;99.90;;;1.92;100.00;97257.97;4983904;28;20527;-74
2022/04/02 01:05:38;;;;;;;3.23;2.50;;;1.30;99.90;;;1.92;100.00;97257.97;4985063;28;20882;-74
2022/04/02 01:08:10;;;;;;;4.40;2.53;;;1.30;99.90;;;1.90;100.00;97265.88;4985473;28;20464;-75
2022/04/02 01:10:40;;;;;;;4.80;3.00;;;1.20;99.90;;;1.87;100.00;97266.16;4986431;28;20467;-75
2022/04/02 01:13:10;;;;;;;2.90;2.70;;;1.20;99.90;;;1.90;100.00;97267.63;4984503;28;20464;-75
2022/04/02 01:15:40;;;;;;;3.30;2.90;;;1.20;99.90;;;1.88;100.00;97270.34;4983514;28;20544;-74
2022/04/02 01:18:10;;;;;;;3.17;2.83;;;1.30;99.90;;;1.87;100.00;97270.50;4986438;28;20463;-75
2022/04/02 01:20:40;;;;;;;9.37;2.73;;;1.20;99.90;;;1.90;100.00;97270.22;4983959;28;20534;-75
2022/04/02 01:23:11;;;;;;;3.50;2.70;;;1.20;99.90;;;1.89;100.00;97264.25;4986313;28;20471;-74
2022/04/02 01:25:41;;;;;;;3.40;3.10;;;1.20;99.90;;;1.86;100.00;97258.56;4985266;28;20517;-74
2022/04/02 01:28:11;;;;;;;4.20;3.20;;;1.20;99.90;;;1.86;100.00;97264.53;4983799;28;21381;-74
2022/04/02 01:30:40;;;;;;;7.43;3.00;;;1.20;99.90;;;1.90;100.00;97276.16;4984959;28;20455;-74
2022/04/02 01:33:10;;;;;;;3.50;2.10;;;1.40;99.90;;;1.87;100.00;97275.66;4986463;28;20525;-75
2022/04/02 01:35:40;;;;;;;13.77;2.30;;;1.30;99.90;;;1.78;100.00;97268.81;4987913;28;20447;-75
2022/04/02 01:38:11;;;;;;;3.87;3.57;;;1.20;99.90;;;1.79;100.00;97279.00;4987995;28;20453;-74
2022/04/02 01:40:41;;;;;;;9.60;3.27;;;1.20;99.90;;;1.83;100.00;97271.78;4987255;28;20481;-75
2022/04/02 01:43:11;;;;;;;3.10;2.60;;;1.20;99.90;;;1.82;100.00;97283.03;4988847;28;20840;-74
2022/04/02 01:45:41;;;;;;;2.73;2.47;;;1.10;99.90;;;1.88;100.00;97274.69;4989395;28;20560;-74
2022/04/02 01:48:12;;;;;;;3.40;2.60;;;1.20;99.90;;;1.92;100.00;97274.25;4988095;28;20459;-74
2022/04/02 01:50:42;;;;;;;3.67;2.23;;;1.30;99.90;;;1.95;100.00;97275.69;4988760;28;20439;-74
2022/04/02 01:53:13;;;;;;;2.50;2.30;;;1.30;99.90;;;1.95;100.00;97278.28;4988200;28;20519;-75
2022/04/02 01:55:43;;;;;;;3.07;2.77;;;1.30;99.90;;;1.86;100.00;97284.34;4988310;28;20463;-75
2022/04/02 01:58:14;;;;;;;4.60;2.70;;;1.30;99.90;;;1.86;100.00;97281.78;4987608;28;20785;-74
2022/04/02 02:00:43;;;;;;;4.17;2.83;;;1.30;99.90;;;1.81;100.00;97283.97;4988282;28;20457;-74
2022/04/02 02:03:13;;;;;;;2.57;2.30;;;1.10;99.90;;;1.84;100.00;97279.34;4988157;28;20456;-74
2022/04/02 02:05:43;;;;;;;3.20;2.87;;;1.20;99.90;;;1.85;100.00;97282.72;4986582;28;20456;-75
2022/04/02 02:08:14;;;;;;;3.40;2.23;;;1.20;99.90;;;1.80;100.00;97283.19;4985230;28;20587;-75
2022/04/02 02:10:44;;;;;;;3.00;2.73;;;1.20;99.90;;;1.76;100.00;97288.78;4984957;28;20549;-74
2022/04/02 02:13:13;;;;;;;2.60;2.40;;;1.10;99.90;;;1.80;100.00;97290.13;4985890;28;20506;-74
2022/04/02 02:15:43;;;;;;;4.67;2.97;;;1.10;99.90;;;1.83;100.00;97292.38;4984616;28;20850;-74
2022/04/02 02:18:13;;;;;;;5.00;2.50;;;1.20;99.90;;;1.78;100.00;97297.97;4986182;28;20828;-74
2022/04/02 02:20:44;;;;;;;2.57;2.37;;;1.20;99.90;;;1.78;100.00;97299.75;4984762;28;20475;-75
2022/04/02 02:23:15;;;;;;;6.83;3.20;;;1.20;99.90;;;1.70;100.00;97297.13;4986342;28;20553;-75
2022/04/02 02:25:45;;;;;;;8.50;2.77;;;1.10;99.90;;;1.63;100.00;97294.34;4985337;28;20515;-74
2022/04/02 02:28:16;;;;;;;2.70;2.40;;;1.00;99.90;;;1.68;100.00;97301.63;4985632;28;20460;-75
2022/04/02 02:30:46;;;;;;;3.37;2.80;;;1.00;99.90;;;1.76;100.00;97309.41;4984517;28;20519;-74
2022/04/02 02:36:03;;;;;;;3.20;2.40;;;1.10;99.90;;;1.71;100.00;97302.13;4984574;28;20467;-74
2022/04/02 02:41:32;;;;;;;2.83;2.10;;;1.00;99.90;;;1.74;100.00;97306.16;4928074;29;20510;-74
2022/04/02 02:44:59;;;;;;;2.30;2.10;;;1.00;99.90;;;1.78;100.00;97315.22;4925489;29;20479;-74
2022/04/02 02:48:34;;;;;;;5.60;2.37;;;1.20;99.90;;;1.79;100.00;97311.69;4861969;29;20589;-75
2022/04/02 02:51:06;;;;;;;3.10;2.80;;;1.10;99.90;;;1.80;100.00;97313.31;4864603;29;20591;-75
2022/04/02 02:56:56;;;;;;;5.00;2.80;;;1.20;99.90;;;1.85;100.00;97313.66;4900722;29;20517;-74
2022/04/02 02:59:37;;;;;;;5.83;2.70;;;1.10;99.90;;;1.85;100.00;97321.38;4898338;29;20498;-74
2022/04/02 03:02:22;;;;;;;2.60;2.40;;;1.10;99.90;;;1.86;100.00;97321.25;4899805;29;20481;-74
2022/04/02 03:08:12;;;;;;;4.00;3.47;;;1.20;99.90;;;1.88;100.00;97321.06;4983919;28;20872;-74
2022/04/02 03:10:55;;;;;;;4.50;2.60;;;1.20;99.90;;;1.87;100.00;97329.78;4986129;28;20508;-74
2022/04/02 03:16:24;;;;;;;7.90;2.80;;;1.10;99.90;;;1.86;100.00;97328.97;4979341;28;20460;-74
2022/04/02 03:18:56;;;;;;;2.70;2.47;;;1.20;99.90;;;1.89;100.00;97330.44;4981994;28;20475;-74
2022/04/02 03:21:32;;;;;;;3.30;3.00;;;1.30;99.90;;;1.90;100.00;97329.50;4984433;28;20488;-74
2022/04/02 03:24:31;;;;;;;7.80;3.13;;;1.20;99.90;;;1.87;100.00;97322.88;4868866;29;20656;-75
2022/04/02 03:27:26;;;;;;;3.17;2.87;;;1.20;99.90;;;1.87;100.00;97335.75;4869145;29;20872;-75
2022/04/02 03:30:01;;;;;;;3.47;2.93;;;1.20;99.90;;;1.82;100.00;97340.53;4866401;29;20598;-75
2022/04/02 03:33:41;;;;;;;3.00;2.70;;;1.10;99.90;;;1.86;100.00;97338.47;4867984;29;20537;-75
2022/04/02 03:36:13;;;;;;;3.00;2.70;;;1.20;99.90;;;1.78;100.00;97346.13;4862683;29;20483;-75
2022/04/02 03:43:30;;;;;;;2.53;2.33;;;1.10;99.90;;;1.77;100.00;97344.53;4842327;29;21063;-75
2022/04/02 03:48:43;;;;;;;3.67;2.60;;;1.10;99.90;;;1.70;100.00;97356.41;4879518;28;20476;-76
2022/04/02 03:51:42;;;;;;;3.30;2.10;;;1.10;99.90;;;1.69;100.00;97360.72;4940827;28;21473;-74
2022/04/02 03:54:12;;;;;;;2.87;2.63;;;1.10;99.90;;;1.69;100.00;97354.78;4961439;28;20592;-75
2022/04/02 03:56:42;;;;;;;3.83;2.60;;;1.10;99.90;;;1.71;100.00;97353.66;4981676;28;20571;-74
2022/04/02 03:59:16;;;;;;;4.83;2.30;;;1.10;99.90;;;1.72;100.00;97351.88;4984857;28;20539;-75
2022/04/02 04:02:01;;;;;;;2.53;2.33;;;1.10;99.90;;;1.69;100.00;97352.19;4945934;28;20468;-75
2022/04/02 04:04:35;;;;;;;3.77;2.10;;;1.20;99.90;;;1.68;100.00;97360.88;4945916;28;20477;-75
2022/04/02 04:07:31;;;;;;;3.20;2.50;;;1.00;99.90;;;1.62;100.00;97358.91;4889319;29;20607;-74
2022/04/02 04:10:27;;;;;;;2.93;2.20;;;1.00;99.90;;;1.59;100.00;97357.44;4880743;29;20473;-75
2022/04/02 04:13:23;;;;;;;3.70;2.20;;;0.90;99.90;;;1.56;100.00;97355.16;4883419;29;20802;-74
2022/04/02 04:16:08;;;;;;;2.80;2.50;;;0.90;99.90;;;1.57;100.00;97358.50;4882106;29;21063;-74
2022/04/02 04:18:54;;;;;;;3.13;2.40;;;0.90;99.90;;;1.57;100.00;97355.94;4928784;28;21152;-74
2022/04/02 04:21:34;;;;;;;2.90;2.47;;;0.90;99.90;;;1.57;100.00;97356.75;4927105;28;20469;-75
2022/04/02 04:24:08;;;;;;;3.90;2.83;;;0.90;99.90;;;1.60;100.00;97366.75;4940378;28;20478;-74
2022/04/02 04:26:59;;;;;;;2.40;2.20;;;1.00;99.90;;;1.62;100.00;97364.03;4936920;28;20480;-75
2022/04/02 04:30:07;;;;;;;3.93;2.13;;;1.00;99.90;;;1.50;100.00;97366.84;4939504;28;20510;-75
2022/04/02 04:33:17;;;;;;;3.63;2.50;;;0.90;99.90;;;1.44;100.00;97374.34;4944317;28;20547;-74
2022/04/02 04:38:49;;;;;;;2.90;2.60;;;0.90;99.90;;;1.47;100.00;97382.59;4878570;29;20509;-75
2022/04/02 04:41:52;;;;;;;3.10;2.40;;;0.90;99.90;;;1.45;100.00;97386.28;4885962;29;20479;-74
2022/04/02 04:44:49;;;;;;;4.33;2.40;;;0.80;99.90;;;1.44;100.00;97393.19;4868530;29;20477;-74
2022/04/02 04:47:25;;;;;;;4.30;2.30;;;0.80;99.90;;;1.39;100.00;97389.41;4845072;29;20553;-74
2022/04/02 04:50:57;;;;;;;3.20;2.10;;;0.70;99.90;;;1.42;100.00;97395.09;4881628;29;20467;-74
2022/04/02 04:54:00;;;;;;;3.53;2.70;;;0.80;99.90;;;1.38;100.00;97393.78;4842692;29;20495;-74
2022/04/02 04:56:37;;;;;;;5.20;2.57;;;0.70;99.90;;;1.41;100.00;97397.81;4883199;29;20496;-74
2022/04/02 05:02:26;;;;;;;3.60;2.87;;;0.70;99.90;;;1.30;100.00;97411.72;4876058;29;20485;-74
2022/04/02 05:05:23;;;;;;;2.50;2.30;;;0.80;99.90;;;1.26;100.00;97407.81;4884391;29;20474;-75
2022/04/02 05:08:23;;;;;;;4.97;2.80;;;0.70;99.90;;;1.23;100.00;97415.00;4972724;28;20464;-74
2022/04/02 05:11:27;;;;;;;6.57;2.47;;;0.70;99.90;;;1.23;100.00;97413.25;4976878;28;20476;-74
2022/04/02 05:14:00;;;;;;;3.60;2.50;;;0.60;99.90;;;1.23;100.00;97412.44;4976634;28;20573;-74
2022/04/02 05:16:30;;;;;;;2.97;2.43;;;0.60;99.90;;;1.24;100.00;97412.31;4983949;28;20514;-74
2022/04/02 05:19:14;;;;;;;4.37;2.00;;;0.70;99.90;;;1.25;100.00;97421.63;4980195;28;20496;-74
2022/04/02 05:22:01;;;;;;;3.07;2.50;;;0.70;99.90;;;1.27;100.00;97418.91;4980162;28;20463;-75
2022/04/02 05:25:10;;;;;;;4.10;2.10;;;0.80;99.90;;;1.22;100.00;97421.91;4983019;28;20487;-74
2022/04/02 05:28:13;;;;;;;4.80;2.50;;;0.60;99.90;;;1.19;100.00;97422.22;4980360;28;20459;-74
2022/04/02 05:30:46;;;;;;;3.90;2.57;;;0.60;99.90;;;1.22;100.00;97428.81;4983146;28;21172;-75
2022/04/02 05:36:56;;;;;;;5.17;2.70;;;0.70;99.90;;;1.24;100.00;97432.91;4976805;28;21099;-75
2022/04/02 05:46:41;;;;;;;3.20;2.67;;;0.70;99.90;;;1.09;100.00;97454.91;4837587;29;20472;-74
2022/04/02 05:49:34;;;;;;;3.40;2.73;;;0.50;99.90;;;1.10;100.00;97463.44;4892595;28;20529;-75
2022/04/02 05:52:13;;;;;;;14.40;7.50;;;0.50;99.90;;;1.03;100.00;97460.63;4983635;28;20967;-79
2022/04/02 05:55:03;;;;;;;2.73;2.53;;;0.50;99.90;;;1.03;100.00;97468.34;4982741;28;20879;-74
2022/04/02 05:57:35;;;;;;;2.40;1.93;;;0.40;99.90;;;1.07;100.00;97471.47;4985587;28;20457;-75
2022/04/02 06:00:24;;;;;;;4.43;2.30;;;0.50;99.90;;;1.04;100.00;97479.47;4974006;28;20502;-75
2022/04/02 06:03:02;;;;;;;4.77;2.57;;;0.40;99.90;;;0.99;100.00;97475.56;4980157;28;20539;-75
2022/04/02 06:05:49;;;;;;;3.00;2.50;;;0.40;99.90;;;1.03;100.00;97481.22;4961104;28;20460;-75
2022/04/02 06:09:11;;;;;;;3.10;2.80;;;0.40;99.90;;;1.05;100.00;97484.47;4985504;28;20546;-75
2022/04/02 06:11:53;;;;;;;4.00;2.47;;;0.40;99.90;;;1.04;100.00;97482.88;4974650;28;20616;-75
2022/04/02 06:14:41;;;;;;;;;;;;;;;;;;;;;
2022/04/02 06:17:50;;;;;;;3.20;2.60;;;0.40;99.90;;;1.02;100.00;97485.56;4968841;28;20474;-75
2022/04/02 06:20:24;;;;;;;3.53;2.60;;;0.50;99.90;;;1.01;100.00;97493.41;4982657;28;21371;-75
2022/04/02 06:24:04;;;;;;;4.27;2.90;;;0.50;99.90;;;1.02;100.00;97502.75;4983049;28;20902;-75
2022/04/02 06:27:06;;;;;;;3.90;2.30;;;0.40;99.90;;;1.05;100.00;97512.78;4988942;28;21043;-75
2022/04/02 06:30:02;;;;;;;2.10;1.90;;;0.50;99.90;;;1.07;100.00;97500.59;5005376;28;20617;-75
2022/04/02 06:33:00;;;;;;;5.10;2.77;;;0.40;99.90;;;1.07;100.00;97516.03;5003309;28;21011;-75
2022/04/02 06:43:01;;;;;;;3.80;2.60;;;0.40;99.90;;;0.99;100.00;97528.78;4890085;29;20480;-75
2022/04/02 06:45:59;;;;;;;3.00;2.60;;;0.40;99.90;;;0.97;100.00;97539.22;4928903;29;20568;-75
2022/04/02 06:48:37;;;;;;;4.77;2.60;;;0.30;99.90;;;0.97;100.00;97538.41;4929050;29;20545;-75
2022/04/02 06:55:02;;;;;;;2.03;1.93;;;0.40;99.90;;;1.04;100.00;97530.94;4845221;29;21144;-75
2022/04/02 06:58:01;;;;;;;4.00;2.67;;;0.50;99.90;;;1.09;100.00;97542.44;4920390;29;20473;-74
2022/04/02 07:00:46;;;;;;;2.63;1.90;;;0.50;99.90;;;0.99;100.00;97539.91;4920661;29;20544;-74
2022/04/02 07:03:43;;;;;;;2.90;2.50;;;0.40;99.90;;;1.07;100.00;97554.66;4914667;29;20460;-75
2022/04/02 07:06:36;;;;;;;2.20;2.00;;;0.40;99.90;;;1.07;100.00;97561.56;4929001;29;20549;-75
2022/04/02 07:09:39;;;;;;;4.23;2.40;;;0.40;99.90;;;1.10;100.00;97558.69;4864586;29;20603;-75
2022/04/02 07:13:16;;;;;;;3.97;2.50;;;0.40;99.90;;;1.09;100.00;97573.31;4886257;29;20820;-75
2022/04/02 07:16:10;;;;;;;;;;;;;;;;;;;;;
2022/04/02 07:19:14;;;;;;;4.20;2.40;;;0.50;99.90;;;1.16;100.00;97579.53;4895184;29;20608;-76
2022/04/02 07:21:48;;;;;;;2.93;2.57;;;0.50;99.90;;;1.22;100.00;97575.59;4912339;28;20466;-76
2022/04/02 07:25:00;;;;;;;2.80;2.60;;;0.60;99.90;;;1.26;100.00;97584.66;4901472;29;20845;-77
2022/04/02 07:27:43;;;;;;;5.73;2.90;;;0.70;99.90;;;1.27;100.00;97576.81;4904211;29;20539;-76
2022/04/02 07:30:50;;;;;;;4.23;2.60;;;0.60;99.90;;;1.35;100.00;97589.78;4904410;29;20469;-76
2022/04/02 07:33:43;;;;;;;3.23;2.93;;;0.70;99.90;;;1.39;100.00;97585.16;4892308;29;20474;-76
2022/04/02 07:37:16;;;;;;;17.43;7.30;;;0.70;99.90;;;1.40;100.00;97589.34;4887787;29;20455;-76
2022/04/02 07:47:24;;;;;;;4.50;2.27;;;0.80;99.90;;;1.28;100.00;97614.47;4974584;28;20464;-75
2022/04/02 07:50:28;;;;;;;2.40;2.20;;;0.70;99.90;;;1.31;100.00;97609.03;4999429;28;20501;-76
2022/04/02 07:53:26;;;;;;;4.90;2.40;;;0.60;99.90;;;1.35;100.00;97615.53;4936419;28;20538;-76
2022/04/02 07:56:58;;;;;;;9.23;2.63;;;0.70;99.90;;;1.41;100.00;97620.13;4999960;28;20483;-75
2022/04/02 08:00:14;;;;;;;4.73;2.60;;;0.80;99.90;;;1.42;100.00;97621.72;4932735;28;20481;-75
2022/04/02 08:03:05;;;;;;;2.80;2.50;;;0.80;99.90;;;1.45;100.00;97621.47;5003777;28;20554;-75
2022/04/02 08:09:18;;;;;;;3.70;2.67;;;0.80;99.90;;;1.40;100.00;97627.97;5004046;28;20503;-76
2022/04/02 08:12:25;;;;;;;3.13;2.83;;;0.80;99.90;;;1.46;100.00;97633.38;5003115;28;20437;-76
2022/04/02 08:15:13;;;;;;;9.57;4.60;;;0.80;99.90;;;1.46;100.00;97643.69;4906945;29;20280;-77
2022/04/02 08:17:56;;;;;;;2.70;2.40;;;0.80;99.90;;;1.42;100.00;97644.91;4939396;28;20545;-76
2022/04/02 08:20:46;;;;;;;3.37;2.67;;;0.80;99.90;;;1.44;100.00;97645.59;4935181;29;21065;-76
2022/04/02 08:24:01;;;;;;;3.80;2.50;;;0.80;99.90;;;1.40;100.00;97653.75;4940057;28;20496;-76
2022/04/02 08:31:37;;;;;;;3.77;2.53;;;0.90;99.90;;;1.45;100.00;97667.84;4962100;28;20552;-76
2022/04/02 08:35:11;;;;;;;3.30;2.60;;;0.90;99.90;;;1.44;100.00;97671.34;4960022;28;21106;-76
2022/04/02 08:38:50;;;;;;;2.53;2.33;;;0.90;99.90;;;1.53;100.00;97677.41;4939431;28;20536;-76
2022/04/02 08:42:43;;;;;;;3.47;3.17;;;0.90;99.90;;;1.54;100.00;97684.22;4957324;28;20460;-76
2022/04/02 08:45:29;;;;;;;2.93;2.63;;;0.90;99.90;;;1.50;100.00;97681.09;4923930;29;20460;-76
2022/04/02 08:53:15;;;;;;;2.20;2.00;;;0.80;99.90;;;1.36;100.00;97686.69;4960710;28;20843;-76
2022/04/02 08:56:41;;;;;;;5.87;4.13;;;0.80;99.90;;;1.54;100.00;97681.63;4904396;28;20642;-76
2022/04/02 08:59:39;;;;;;;3.73;3.30;;;0.90;99.90;;;1.49;100.00;97694.91;4949723;28;20456;-75
2022/04/02 09:03:36;;;;;;;2.53;2.33;;;0.90;99.90;;;1.56;100.00;97694.38;4953318;28;20712;-76
2022/04/02 09:07:23;;;;;;;2.60;2.40;;;0.90;99.90;;;1.56;100.00;97695.19;4825327;29;20482;-76
2022/04/02 09:10:47;;;;;;;3.17;2.27;;;0.90;99.90;;;1.60;100.00;97713.78;4805826;29;20491;-75
2022/04/02 09:14:32;;;;;;;3.40;2.60;;;0.90;99.90;;;1.63;100.00;97716.06;4811029;29;20463;-76
2022/04/02 09:18:47;;;;;;;3.83;2.90;;;1.00;99.90;;;1.70;100.00;97715.34;4881948;29;20451;-75
2022/04/02 09:34:04;;;;;;;7.07;2.33;;;1.30;99.90;;;1.93;100.00;97728.72;5026459;28;20436;-77
2022/04/02 09:37:50;;;;;;;3.07;2.33;;;1.40;99.90;;;2.06;100.00;97729.22;5056293;28;20513;-77
2022/04/02 09:40:53;;;;;;;3.50;2.30;;;1.50;99.90;;;2.07;100.00;97730.03;5015914;28;20905;-77
2022/04/02 09:48:07;;;;;;;4.47;2.33;;;1.50;99.90;;;2.24;100.00;97743.00;4993812;28;20475;-77
2022/04/02 09:54:29;;;;;;;2.07;1.87;;;1.60;99.90;;;2.32;100.00;97756.00;4949721;28;20494;-77
2022/04/02 09:58:00;;;;;;;4.03;2.97;;;1.70;99.90;;;2.38;100.00;97746.84;4994790;28;20467;-77
2022/04/02 10:01:13;;;;;;;3.03;2.30;;;1.80;99.90;;;2.44;100.00;97749.69;4918874;29;20969;-77
2022/04/02 10:05:03;;;;;;;5.50;2.93;;;1.90;99.90;;;2.46;100.00;97752.91;4928815;28;20543;-78
2022/04/02 10:08:24;;;;;;;10.07;5.00;;;1.90;99.90;;;2.50;100.00;97761.19;5002282;28;20570;-77
2022/04/02 10:11:17;;;;;;;3.50;2.80;;;1.90;99.90;;;2.44;100.00;97760.00;5074365;28;20461;-77
2022/04/02 10:14:43;;;;;;;3.83;2.70;;;1.90;99.90;;;2.42;100.00;97751.59;5088438;28;20456;-77
2022/04/02 10:17:41;;;;;;;3.40;2.60;;;1.80;99.90;;;2.48;100.00;97760.53;5088831;28;20505;-77
2022/04/02 10:20:20;;;;;;;2.67;2.47;;;1.80;99.90;;;2.53;100.00;97756.53;5085560;28;20452;-77
2022/04/02 10:23:42;;;;;;;6.60;2.97;;;1.90;99.90;;;2.47;100.00;97764.03;5084761;28;20527;-77
2022/04/02 10:26:46;;;;;;;5.60;2.63;;;1.90;99.90;;;2.37;100.00;97766.69;5082728;28;20459;-77
2022/04/02 10:39:02;;;;;;;3.20;2.90;;;2.00;99.90;;;2.61;100.00;97770.50;4986782;28;20446;-78
2022/04/02 10:42:11;;;;;;;5.63;3.50;;;2.00;99.90;;;2.57;100.00;97766.59;5066809;28;20471;-77
2022/04/02 10:45:14;;;;;;;6.30;3.43;;;1.90;99.90;;;2.63;100.00;97773.75;5066340;28;20495;-77
2022/04/02 10:48:36;;;;;;;5.43;2.83;;;1.90;99.90;;;2.77;100.00;97775.84;5075672;28;20441;-77
2022/04/02 10:51:17;;;;;;;2.73;2.53;;;2.10;99.90;;;2.67;100.00;97775.09;5079056;28;20525;-77
2022/04/02 10:56:59;;;;;;;2.67;2.47;;;2.00;99.90;;;2.59;100.00;97780.16;5072663;27;20481;-77
2022/04/02 10:59:57;;;;;;;181.00;76.73;;;2.00;99.90;;;2.66;100.00;97786.38;5067466;28;20494;-77
2022/04/02 11:06:07;;;;;;;6.97;3.50;;;2.00;99.90;;;2.74;100.00;97779.50;5016584;28;20613;-77
2022/04/02 11:13:00;;;;;;;2.93;2.43;;;2.30;99.90;;;2.76;100.00;97784.56;4987054;28;20547;-77
2022/04/02 11:15:58;;;;;;;3.43;2.90;;;2.10;99.90;;;2.85;100.00;97778.50;5050748;28;20596;-77
2022/04/02 11:27:08;;;;;;;3.70;2.93;;;2.30;99.90;;;3.09;100.00;97791.66;5661201;22;20588;-76
2022/04/02 11:29:49;;;;;;;5.70;3.73;;;2.40;99.90;;;3.15;100.00;97798.03;5005952;28;20473;-77
2022/04/02 11:32:29;;;;;;;2.97;2.67;;;2.50;99.90;;;3.28;100.00;97795.91;5006914;28;20468;-77
2022/04/02 11:34:59;;;;;;;32.17;13.30;;;2.60;99.90;;;3.38;100.00;97786.28;5006572;28;20496;-76
2022/04/02 11:37:36;;;;;;;4.40;2.70;;;2.70;99.90;;;3.33;100.00;97785.94;4999731;28;20462;-76
2022/04/02 11:40:12;;;;;;;4.47;2.43;;;2.60;99.90;;;3.35;100.00;97790.00;5006718;28;20502;-76
2022/04/02 11:42:48;;;;;;;7.10;3.37;;;2.80;99.90;;;3.36;100.00;97786.47;5004603;28;20459;-77
2022/04/02 11:45:24;;;;;;;2.93;2.73;;;2.70;99.90;;;3.32;100.00;97787.72;5006290;28;21004;-76
2022/04/02 11:48:00;;;;;;;4.17;2.80;;;2.70;99.90;;;3.35;100.00;97794.34;5003895;28;20443;-78
2022/04/02 11:50:31;;;;;;;3.67;2.93;;;2.80;99.90;;;3.41;100.00;97786.81;5005980;28;20446;-78
2022/04/02 11:53:01;;;;;;;9.38;3.25;;;2.90;99.90;;;3.39;100.00;97788.75;5004479;28;20459;-78
2022/04/02 11:55:37;;;;;;;3.27;2.97;;;2.90;99.90;;;3.24;100.00;97815.22;5006280;28;20215;-78
2022/04/02 11:58:14;;;;;;;4.17;2.90;;;2.70;99.90;;;3.14;100.00;97810.13;5004854;28;20440;-78
2022/04/02 12:00:45;;;;;;;4.23;2.90;;;2.60;99.90;;;3.20;100.00;97814.72;5004648;28;20460;-79
2022/04/02 12:03:27;;;;;;;4.67;3.17;;;2.60;99.90;;;3.18;100.00;97805.50;5005386;28;20491;-78
2022/04/02 12:06:11;;;;;;;4.10;3.20;;;2.60;99.90;;;3.21;100.00;97812.94;5004929;28;20490;-77
2022/04/02 12:08:41;;;;;;;11.20;4.80;;;2.60;99.90;;;3.26;100.00;97808.97;5006047;28;20506;-79
2022/04/02 12:11:12;;;;;;;2.47;2.27;;;2.60;99.90;;;3.22;100.00;97807.63;5003505;28;20490;-79
2022/04/02 12:13:56;;;;;;;4.47;2.97;;;2.50;99.90;;;3.25;100.00;97822.03;5004984;28;20505;-79
2022/04/02 12:16:31;;;;;;;6.23;3.37;;;2.60;99.90;;;3.33;100.00;97819.53;5005619;28;20451;-78
2022/04/02 12:19:03;;;;;;;4.63;3.53;;;2.80;99.90;;;3.27;100.00;97818.31;5000449;28;20507;-78
2022/04/02 12:21:34;;;;;;;2.00;1.90;;;2.70;99.90;;;3.20;100.00;97821.63;4999539;28;20659;-78
2022/04/02 12:24:06;;;;;;;3.73;2.63;;;2.50;99.90;;;3.16;100.00;97815.97;5004932;28;20455;-79
2022/04/02 12:26:35;;;;;;;5.40;3.23;;;2.50;99.90;;;3.27;100.00;97813.16;4991374;28;20501;-78
2022/04/02 12:29:07;;;;;;;127.70;51.57;;;2.70;99.90;;;3.19;100.00;97818.28;4980948;28;20502;-87
2022/04/02 12:31:35;;;;;;;6.80;3.93;;;2.60;99.90;;;3.24;100.00;97821.22;4976328;28;20472;-78
2022/04/02 12:34:06;;;;;;;3.27;2.97;;;2.80;99.90;;;3.24;100.00;97828.16;4971936;28;20460;-78
2022/04/02 12:36:38;;;;;;;7.20;3.90;;;2.70;99.90;;;3.21;100.00;97829.25;4977137;28;20470;-78
2022/04/02 12:39:11;;;;;;;4.50;3.57;;;2.60;99.90;;;3.22;100.00;97833.47;4977170;28;20930;-78
2022/04/02 12:41:47;;;;;;;4.80;3.10;;;2.70;99.90;;;3.27;100.00;97825.25;4979375;28;20456;-78
2022/04/02 12:44:23;;;;;;;5.97;3.80;;;2.70;99.90;;;3.30;100.00;97830.94;4978425;28;20502;-78
2022/04/02 12:46:54;;;;;;;3.60;3.30;;;2.80;99.90;;;3.31;100.00;97822.25;4978701;28;20937;-78
2022/04/02 12:49:32;;;;;;;6.97;3.30;;;2.70;99.90;;;3.39;100.00;97824.91;4978290;28;20453;-78
2022/04/02 12:52:12;;;;;;;4.83;3.57;;;2.80;99.90;;;3.46;100.00;97835.47;4977732;28;20482;-78
2022/04/02 12:54:50;;;;;;;5.27;2.83;;;3.00;99.90;;;3.47;100.00;97824.19;4979484;28;20494;-78
2022/04/02 12:57:22;;;;;;;2.50;2.27;;;2.90;99.90;;;3.48;96.15;97818.84;4977541;28;20472;-78
2022/04/02 12:59:56;;;;;;;4.30;3.67;;;2.90;98.70;;;3.58;98.61;97828.28;4978708;28;20447;-78
2022/04/02 13:02:26;;;;;;;5.43;3.60;;;3.00;99.90;;;3.63;97.59;97834.66;4978088;28;20443;-78
2022/04/02 13:05:15;;;;;;;6.67;2.87;;;3.00;99.40;;;3.68;98.66;97827.25;4978311;28;20568;-78
2022/04/02 13:08:03;;;;;;;3.83;2.80;;;3.10;99.90;;;3.73;97.02;97830.22;4978259;28;20941;-78
2022/04/02 13:10:32;;;;;;;4.23;2.77;;;3.10;99.50;;;3.79;97.07;97841.72;4974803;28;20986;-78
2022/04/02 13:13:07;;;;;;;2.53;2.33;;;3.20;99.40;;;3.70;91.37;97852.97;4978753;28;20459;-78
2022/04/02 13:15:38;;;;;;;2.50;2.30;;;3.10;97.80;;;3.54;89.07;97851.84;4975799;28;20491;-78
2022/04/02 13:21:02;;;;;;;7.20;3.07;;;2.90;98.20;;;3.48;89.39;97849.06;4976829;28;20801;-78
2022/04/02 13:24:15;;;;;;;3.60;2.80;;;2.90;97.50;;;3.58;91.79;97841.22;4976818;28;20496;-78
2022/04/02 13:27:01;;;;;;;3.03;2.67;;;2.90;98.60;;;3.67;90.58;97842.94;4968206;28;20494;-78
2022/04/02 13:29:56;;;;;;;3.83;3.27;;;3.10;97.90;;;3.74;89.16;97849.13;4975528;28;20488;-78
2022/04/02 13:33:07;;;;;;;2.30;2.10;;;3.10;97.60;;;3.77;88.19;97841.06;4974576;28;20461;-78
2022/04/02 13:35:40;;;;;;;6.20;2.77;;;3.10;97.50;;;3.84;86.74;97842.09;4973069;28;20459;-78
2022/04/02 13:38:31;;;;;;;2.60;2.37;;;3.20;97.00;;;3.91;86.37;97845.72;4974343;28;20517;-78
2022/04/02 13:41:03;;;;;;;2.97;2.30;;;3.20;96.90;;;3.89;82.08;97851.03;4975194;28;20488;-77
2022/04/02 13:43:36;;;;;;;4.37;2.60;;;3.30;95.70;;;3.91;84.24;97846.53;4975129;28;20532;-77
2022/04/02 13:46:08;;;;;;;3.10;2.40;;;3.30;96.70;;;4.00;84.96;97855.16;4974814;28;20520;-77
2022/04/02 13:49:07;;;;;;;6.60;3.40;;;3.40;96.50;;;4.04;82.43;97851.31;4975103;28;20445;-78
2022/04/02 13:51:40;;;;;;;2.80;2.50;;;3.50;96.20;;;3.99;78.33;97853.53;4973132;28;20507;-77
2022/04/02 13:54:17;;;;;;;3.80;2.30;;;3.40;94.40;;;3.93;78.17;97862.69;4974878;28;20481;-77